createdAt,value
2019-03-25T00:02:09.571Z,102112.38
2019-03-25T00:04:38.205Z,102106.73
2019-03-25T00:07:06.782Z,102107.05
2019-03-25T00:09:35.472Z,102107.27
2019-03-25T00:12:04.084Z,102105.59
2019-03-25T00:14:32.950Z,102100.81
2019-03-25T00:17:01.634Z,102097.30
2019-03-25T00:19:30.252Z,102102.66
2019-03-25T00:21:58.836Z,102091.37
2019-03-25T00:24:37.924Z,102082.78
2019-03-25T00:26:57.815Z,102076.46
2019-03-25T00:29:26.365Z,102080.66
2019-03-25T00:31:55.467Z,102072.68
2019-03-25T00:34:24.070Z,102067.77
2019-03-25T00:36:52.656Z,102061.44
2019-03-25T00:39:21.230Z,102066.89
2019-03-25T00:41:49.678Z,102067.22
2019-03-25T00:44:18.419Z,102055.16
2019-03-25T00:46:46.865Z,102050.75
2019-03-25T00:49:15.481Z,102047.60
2019-03-25T00:51:44.193Z,102041.70
2019-03-25T00:54:12.776Z,102039.29
2019-03-25T00:56:41.305Z,102032.36
2019-03-25T00:59:09.956Z,102032.59
2019-03-25T01:01:38.460Z,102021.63
2019-03-25T01:04:07.070Z,102016.59
2019-03-25T01:06:35.674Z,102019.64
2019-03-25T01:09:06.150Z,102015.23
2019-03-25T01:11:34.767Z,102015.64
2019-03-25T01:14:04.209Z,102013.77
2019-03-25T01:16:32.831Z,102010.31
2019-03-25T01:19:01.274Z,101999.39
2019-03-25T01:21:29.885Z,101999.75
2019-03-25T01:23:58.455Z,101992.00
2019-03-25T01:26:27.039Z,101990.97
2019-03-25T01:28:55.666Z,101985.36
2019-03-25T01:31:24.911Z,101976.02
2019-03-25T01:33:53.550Z,101975.05
2019-03-25T01:36:22.069Z,101969.12
2019-03-25T01:38:50.703Z,101969.28
2019-03-25T01:41:19.182Z,101966.16
2019-03-25T01:43:47.794Z,101966.16
2019-03-25T01:46:16.293Z,101966.14
2019-03-25T01:48:44.843Z,101965.24
2019-03-25T01:51:13.420Z,101952.56
2019-03-25T01:53:41.993Z,101947.55
2019-03-25T01:56:10.467Z,101960.77
2019-03-25T01:58:38.945Z,101947.86
2019-03-25T02:01:07.519Z,101949.81
2019-03-25T02:03:36.022Z,101942.94
2019-03-25T02:06:05.654Z,101931.72
2019-03-25T02:08:34.243Z,101941.54
2019-03-25T02:11:03.072Z,101929.45
2019-03-25T02:13:31.653Z,101918.83
2019-03-25T02:16:00.664Z,101906.00
2019-03-25T02:18:29.234Z,101910.78
2019-03-25T02:20:57.838Z,101914.73
2019-03-25T02:23:26.409Z,101912.75
2019-03-25T02:25:54.841Z,101906.34
2019-03-25T02:28:23.438Z,101905.07
2019-03-25T02:30:52.075Z,101890.00
2019-03-25T02:33:20.579Z,101884.37
2019-03-25T02:35:49.133Z,101883.39
2019-03-25T02:38:17.686Z,101875.35
2019-03-25T02:40:46.320Z,101873.48
2019-03-25T02:43:14.795Z,101872.22
2019-03-25T02:45:43.379Z,101869.78
2019-03-25T02:48:12.134Z,101869.50
2019-03-25T02:50:40.618Z,101874.03
2019-03-25T02:53:09.134Z,101876.41
2019-03-25T02:55:41.988Z,101870.17
2019-03-25T02:58:07.954Z,101865.98
2019-03-25T03:00:38.045Z,101856.20
2019-03-25T03:03:08.192Z,101843.28
2019-03-25T03:05:37.400Z,101834.17
2019-03-25T03:08:06.993Z,101825.84
2019-03-25T03:10:36.028Z,101822.91
2019-03-25T03:13:04.734Z,101846.70
2019-03-25T03:15:33.327Z,101836.15
2019-03-25T03:18:02.017Z,101840.81
2019-03-25T03:20:30.609Z,101831.17
2019-03-25T03:22:59.135Z,101829.00
2019-03-25T03:25:27.717Z,101828.44
2019-03-25T03:27:56.266Z,101830.25
2019-03-25T03:30:25.181Z,101839.69
2019-03-25T03:32:53.806Z,101842.88
2019-03-25T03:35:22.301Z,101836.10
2019-03-25T03:37:50.845Z,101840.12
2019-03-25T03:40:19.709Z,101833.10
2019-03-25T03:42:48.307Z,101844.80
2019-03-25T03:45:17.037Z,101844.49
2019-03-25T03:47:45.480Z,101841.55
2019-03-25T03:50:16.995Z,101838.86
2019-03-25T03:52:45.966Z,101838.61
2019-03-25T03:55:15.508Z,101837.08
2019-03-25T03:57:44.698Z,101833.59
2019-03-25T04:00:16.386Z,101833.31
2019-03-25T04:02:44.999Z,101830.82
2019-03-25T04:05:13.542Z,101828.89
2019-03-25T04:07:42.092Z,101833.13
2019-03-25T04:10:10.754Z,101830.34
2019-03-25T04:12:39.318Z,101840.15
2019-03-25T04:15:08.630Z,101842.06
2019-03-25T04:17:37.135Z,101846.17
2019-03-25T04:20:07.640Z,101840.81
2019-03-25T04:22:36.239Z,101837.59
2019-03-25T04:25:06.451Z,101840.85
2019-03-25T04:27:35.126Z,101832.21
2019-03-25T04:30:03.811Z,101840.34
2019-03-25T04:32:32.453Z,101844.16
2019-03-25T04:35:00.976Z,101839.27
2019-03-25T04:37:29.553Z,101845.45
2019-03-25T04:39:58.023Z,101839.74
2019-03-25T04:42:26.529Z,101851.27
2019-03-25T04:44:55.176Z,101855.31
2019-03-25T04:47:23.614Z,101850.70
2019-03-25T04:49:52.158Z,101846.89
2019-03-25T04:52:20.742Z,101849.83
2019-03-25T04:54:49.248Z,101852.08
2019-03-25T04:57:17.798Z,101847.60
2019-03-25T04:59:46.410Z,101845.98
2019-03-25T05:02:14.857Z,101855.19
2019-03-25T05:04:43.407Z,101847.91
2019-03-25T05:07:11.921Z,101846.30
2019-03-25T05:09:40.419Z,101840.88
2019-03-25T05:12:09.444Z,101841.95
2019-03-25T05:14:38.018Z,101839.75
2019-03-25T05:17:06.684Z,101848.81
2019-03-25T05:19:35.307Z,101851.19
2019-03-25T05:22:03.902Z,101851.38
2019-03-25T05:24:32.425Z,101846.86
2019-03-25T05:27:00.898Z,101856.34
2019-03-25T05:29:29.504Z,101854.18
2019-03-25T05:31:58.108Z,101855.29
2019-03-25T05:34:26.648Z,101860.45
2019-03-25T05:36:55.796Z,101859.66
2019-03-25T05:39:25.104Z,101859.19
2019-03-25T05:41:53.609Z,101857.11
2019-03-25T05:44:22.137Z,101852.75
2019-03-25T05:46:50.771Z,101852.94
2019-03-25T05:49:19.386Z,101862.84
2019-03-25T05:51:47.913Z,101858.43
2019-03-25T05:54:16.362Z,101854.61
2019-03-25T05:56:44.969Z,101864.83
2019-03-25T05:59:13.564Z,101855.38
2019-03-25T06:01:44.241Z,101858.85
2019-03-25T06:04:12.390Z,101863.75
2019-03-25T06:06:40.980Z,101867.06
2019-03-25T06:09:09.518Z,101868.45
2019-03-25T06:11:38.069Z,101871.19
2019-03-25T06:14:06.665Z,101877.73
2019-03-25T06:16:35.280Z,101879.20
2019-03-25T06:19:04.039Z,101877.65
2019-03-25T06:21:32.584Z,101874.09
2019-03-25T06:24:01.077Z,101871.59
2019-03-25T06:26:29.634Z,101869.95
2019-03-25T06:28:58.133Z,101868.75
2019-03-25T06:31:26.650Z,101867.56
2019-03-25T06:33:55.128Z,101869.15
2019-03-25T06:36:23.689Z,101871.84
2019-03-25T06:38:52.246Z,101874.05
2019-03-25T06:41:20.771Z,101870.77
2019-03-25T06:43:49.403Z,101881.75
2019-03-25T06:46:18.001Z,101881.75
2019-03-25T06:48:46.516Z,101879.55
2019-03-25T06:51:15.578Z,101880.73
2019-03-25T06:53:44.060Z,101871.41
2019-03-25T06:56:12.631Z,101875.72
2019-03-25T06:58:41.670Z,101885.13
2019-03-25T07:01:10.178Z,101885.59
2019-03-25T07:03:38.635Z,101895.81
2019-03-25T07:06:07.393Z,101886.03
2019-03-25T07:08:35.908Z,101881.78
2019-03-25T07:11:04.788Z,101879.86
2019-03-25T07:13:33.713Z,101871.81
2019-03-25T07:16:02.216Z,101872.70
2019-03-25T07:18:31.248Z,101863.34
2019-03-25T07:20:59.819Z,101860.34
2019-03-25T07:23:28.494Z,101857.64
2019-03-25T07:25:57.049Z,101860.01
2019-03-25T07:28:25.596Z,101850.87
2019-03-25T07:30:54.221Z,101848.55
2019-03-25T07:33:22.777Z,101855.75
2019-03-25T07:35:51.390Z,101854.03
2019-03-25T07:38:20.008Z,101853.51
2019-03-25T07:40:48.600Z,101863.31
2019-03-25T07:43:17.080Z,101862.25
2019-03-25T07:45:45.931Z,101856.73
2019-03-25T07:48:14.516Z,101856.18
2019-03-25T07:50:43.174Z,101869.56
2019-03-25T07:53:11.768Z,101876.48
2019-03-25T07:55:40.382Z,101875.48
2019-03-25T07:58:08.986Z,101863.95
2019-03-25T08:00:37.623Z,101859.01
2019-03-25T08:03:06.258Z,101876.81
2019-03-25T08:05:35.153Z,101867.24
2019-03-25T08:08:03.815Z,101885.00
2019-03-25T08:10:33.695Z,101882.38
2019-03-25T08:13:02.911Z,101872.97
2019-03-25T08:15:31.679Z,101878.13
2019-03-25T08:18:00.530Z,101895.08
2019-03-25T08:20:29.139Z,101896.44
2019-03-25T08:22:57.700Z,101891.66
2019-03-25T08:25:26.499Z,101887.66
2019-03-25T08:27:59.848Z,101885.36
2019-03-25T08:30:25.495Z,101889.76
2019-03-25T08:32:53.953Z,101903.05
2019-03-25T08:35:23.097Z,101902.93
2019-03-25T08:37:51.769Z,101893.86
2019-03-25T08:40:20.366Z,101896.16
2019-03-25T08:42:49.001Z,101901.50
2019-03-25T08:45:17.998Z,101889.06
2019-03-25T08:47:46.535Z,101900.80
2019-03-25T08:50:15.309Z,101906.16
2019-03-25T08:52:44.346Z,101908.52
2019-03-25T08:55:13.271Z,101922.21
2019-03-25T08:57:41.942Z,101917.25
2019-03-25T09:00:13.429Z,101934.38
2019-03-25T09:02:42.000Z,101940.94
2019-03-25T09:05:11.122Z,101932.31
2019-03-25T09:07:39.698Z,101943.70
2019-03-25T09:10:09.978Z,101959.91
2019-03-25T09:12:38.604Z,101957.22
2019-03-25T09:15:10.308Z,101950.17
2019-03-25T09:17:38.997Z,101944.78
2019-03-25T09:20:09.018Z,101941.00
2019-03-25T09:22:37.718Z,101980.13
2019-03-25T09:25:07.796Z,101973.66
2019-03-25T09:27:36.417Z,101978.50
2019-03-25T09:30:06.676Z,101966.57
2019-03-25T09:32:35.378Z,101968.27
2019-03-25T09:35:04.797Z,101962.82
2019-03-25T09:37:33.457Z,101966.43
2019-03-25T09:40:02.064Z,101981.20
2019-03-25T09:42:30.704Z,101973.61
2019-03-25T09:44:59.308Z,101985.09
2019-03-25T09:47:28.006Z,101978.53
2019-03-25T09:49:56.578Z,101968.05
2019-03-25T09:52:25.287Z,101964.78
2019-03-25T09:54:54.071Z,101967.62
2019-03-25T09:57:22.827Z,101974.28
2019-03-25T09:59:51.574Z,101983.86
2019-03-25T10:02:20.140Z,101978.24
2019-03-25T10:04:48.773Z,101979.09
2019-03-25T10:07:22.509Z,101975.05
2019-03-25T10:09:51.048Z,101981.52
2019-03-25T10:12:19.733Z,101978.87
2019-03-25T10:14:48.327Z,101976.50
2019-03-25T10:17:17.330Z,101986.37
2019-03-25T10:19:46.117Z,101988.08
2019-03-25T10:22:15.159Z,101995.01
2019-03-25T10:24:43.959Z,102000.95
2019-03-25T10:27:12.672Z,101991.36
2019-03-25T10:29:41.251Z,101990.92
2019-03-25T10:32:09.945Z,102001.42
2019-03-25T10:34:38.602Z,101996.84
2019-03-25T10:37:07.310Z,102000.23
2019-03-25T10:39:35.847Z,101993.39
2019-03-25T10:42:04.462Z,102004.67
2019-03-25T10:44:33.037Z,102006.50
2019-03-25T10:47:01.661Z,102003.97
2019-03-25T10:49:30.111Z,102017.82
2019-03-25T10:51:58.686Z,102033.11
2019-03-25T10:54:27.273Z,102067.81
2019-03-25T10:56:55.757Z,102062.23
2019-03-25T10:59:24.207Z,102054.66
2019-03-25T11:01:52.751Z,102055.62
2019-03-25T11:04:21.379Z,102043.51
2019-03-25T11:06:50.039Z,102047.22
2019-03-25T11:09:18.598Z,102052.50
2019-03-25T11:11:47.217Z,102054.20
2019-03-25T11:14:15.883Z,102046.05
2019-03-25T11:16:44.505Z,102039.75
2019-03-25T11:19:13.031Z,102040.13
2019-03-25T11:21:41.570Z,102039.73
2019-03-25T11:24:10.168Z,102027.50
2019-03-25T11:26:39.079Z,102030.14
2019-03-25T11:29:08.557Z,102031.27
2019-03-25T11:31:37.451Z,102032.34
2019-03-25T11:34:06.085Z,102032.42
2019-03-25T11:36:34.733Z,102039.69
2019-03-25T11:39:03.386Z,102041.52
2019-03-25T11:41:32.033Z,102039.98
2019-03-25T11:44:00.834Z,102039.69
2019-03-25T11:46:29.445Z,102048.05
2019-03-25T11:48:58.120Z,102030.06
2019-03-25T11:51:26.776Z,102033.05
2019-03-25T11:53:55.332Z,102044.42
2019-03-25T11:56:23.908Z,102038.06
2019-03-25T11:58:52.424Z,102041.41
2019-03-25T12:01:21.127Z,102038.16
2019-03-25T12:03:49.992Z,102039.22
2019-03-25T12:06:18.616Z,102037.57
2019-03-25T12:08:47.191Z,102059.07
2019-03-25T12:11:15.823Z,102085.35
2019-03-25T12:13:44.391Z,102079.17
2019-03-25T12:16:13.012Z,102084.66
2019-03-25T12:18:41.610Z,102080.53
2019-03-25T12:21:10.152Z,102082.66
2019-03-25T12:23:38.781Z,102078.80
2019-03-25T12:26:07.294Z,102071.05
2019-03-25T12:28:35.941Z,102071.05
2019-03-25T12:31:04.541Z,102062.38
2019-03-25T12:33:33.131Z,102055.02
2019-03-25T12:36:01.672Z,102052.09
2019-03-25T12:38:30.309Z,102049.23
2019-03-25T12:40:58.938Z,102048.77
2019-03-25T12:43:27.426Z,102046.34
2019-03-25T12:45:56.089Z,102045.14
2019-03-25T12:48:24.586Z,102047.31
2019-03-25T12:50:53.146Z,102047.71
2019-03-25T12:53:21.624Z,102056.45
2019-03-25T12:55:50.383Z,102054.77
2019-03-25T12:58:19.418Z,102053.56
2019-03-25T13:00:48.061Z,102050.47
2019-03-25T13:03:16.850Z,102057.56
2019-03-25T13:05:45.371Z,102049.00
2019-03-25T13:08:13.902Z,102052.88
2019-03-25T13:10:42.464Z,102047.34
2019-03-25T13:13:11.065Z,102049.31
2019-03-25T13:15:39.674Z,102036.97
2019-03-25T13:18:08.336Z,102023.45
2019-03-25T13:20:36.865Z,102022.58
2019-03-25T13:23:05.470Z,102002.89
2019-03-25T13:25:34.068Z,102014.11
2019-03-25T13:28:02.633Z,102041.50
2019-03-25T13:30:31.290Z,102052.38
2019-03-25T13:32:59.846Z,102063.69
2019-03-25T13:35:28.456Z,102056.49
2019-03-25T13:37:58.952Z,102067.65
2019-03-25T13:40:27.387Z,102061.63
2019-03-25T13:42:55.864Z,102064.01
2019-03-25T13:45:25.198Z,102058.13
2019-03-25T13:47:54.091Z,102066.83
2019-03-25T13:50:22.734Z,102072.02
2019-03-25T13:52:51.341Z,102069.55
2019-03-25T13:55:20.802Z,102061.11
2019-03-25T13:57:49.307Z,102066.91
2019-03-25T14:00:20.843Z,102066.85
2019-03-25T14:02:49.319Z,102060.84
2019-03-25T14:05:17.849Z,102068.55
2019-03-25T14:07:46.389Z,102071.05
2019-03-25T14:10:15.377Z,102087.62
2019-03-25T14:12:43.850Z,102073.57
2019-03-25T14:15:12.717Z,102084.43
2019-03-25T14:17:41.333Z,102065.67
2019-03-25T14:20:10.756Z,102054.55
2019-03-25T14:22:39.373Z,102054.75
2019-03-25T14:25:08.163Z,102057.62
2019-03-25T14:27:36.652Z,102048.63
2019-03-25T14:30:14.429Z,102047.17
2019-03-25T14:32:38.066Z,102048.69
2019-03-25T14:35:07.685Z,102046.77
2019-03-25T14:37:36.272Z,102081.03
2019-03-25T14:40:07.225Z,102055.62
2019-03-25T14:42:35.807Z,102049.08
2019-03-25T14:45:05.941Z,102055.16
2019-03-25T14:47:34.809Z,102063.02
2019-03-25T14:50:04.463Z,102064.36
2019-03-25T14:52:33.088Z,102058.92
2019-03-25T14:55:01.628Z,102064.81
2019-03-25T14:57:30.249Z,102053.45
2019-03-25T14:59:58.776Z,102056.94
2019-03-25T15:02:27.350Z,102064.31
2019-03-25T15:04:56.272Z,102072.38
2019-03-25T15:07:24.922Z,102076.06
2019-03-25T15:09:53.653Z,102080.34
2019-03-25T15:12:22.412Z,102090.85
2019-03-25T15:14:50.860Z,102092.59
2019-03-25T15:17:19.470Z,102098.89
2019-03-25T15:20:47.911Z,102100.86
2019-03-25T15:23:16.530Z,102110.91
2019-03-25T15:27:15.982Z,102111.12
2019-03-25T15:29:44.420Z,102108.16
2019-03-25T15:32:13.058Z,102106.00
2019-03-25T15:34:41.576Z,102121.76
2019-03-25T15:37:10.141Z,102126.12
2019-03-25T15:39:46.377Z,102125.02
2019-03-25T15:42:09.110Z,102141.02
2019-03-25T15:44:37.700Z,102145.62
2019-03-25T15:47:06.346Z,102148.30
2019-03-25T15:49:34.973Z,102152.06
2019-03-25T15:52:03.544Z,102148.86
2019-03-25T15:54:32.171Z,102143.44
2019-03-25T15:57:00.744Z,102155.33
2019-03-25T15:59:29.297Z,102147.66
2019-03-25T16:01:57.891Z,102155.50
2019-03-25T16:04:26.401Z,102158.89
2019-03-25T16:06:55.346Z,102155.03
2019-03-25T16:09:25.162Z,102159.34
2019-03-25T16:11:53.627Z,102155.77
2019-03-25T16:14:22.260Z,102174.01
2019-03-25T16:16:51.103Z,102170.24
2019-03-25T16:19:19.731Z,102183.59
2019-03-25T16:21:48.451Z,102184.73
2019-03-25T16:24:16.974Z,102198.63
2019-03-25T16:26:45.805Z,102202.20
2019-03-25T16:29:14.434Z,102213.28
2019-03-25T16:31:43.090Z,102206.76
2019-03-25T16:34:11.615Z,102221.69
2019-03-25T16:36:40.245Z,102230.35
2019-03-25T16:39:09.119Z,102229.52
2019-03-25T16:41:37.746Z,102234.13
2019-03-25T16:44:06.350Z,102242.60
2019-03-25T16:46:34.856Z,102254.28
2019-03-25T16:49:03.793Z,102255.91
2019-03-25T16:51:32.393Z,102262.97
2019-03-25T16:54:00.936Z,102275.71
2019-03-25T16:56:29.556Z,102273.26
2019-03-25T16:58:58.071Z,102282.50
2019-03-25T17:01:26.731Z,102291.71
2019-03-25T17:03:55.366Z,102297.91
2019-03-25T17:06:24.777Z,102294.67
2019-03-25T17:08:53.718Z,102296.05
2019-03-25T17:11:22.297Z,102300.38
2019-03-25T17:13:50.850Z,102312.02
2019-03-25T17:16:19.424Z,102307.18
2019-03-25T17:18:47.940Z,102312.83
2019-03-25T17:21:16.560Z,102312.03
2019-03-25T17:23:45.063Z,102323.41
2019-03-25T17:26:13.681Z,102327.72
2019-03-25T17:28:42.310Z,102340.98
2019-03-25T17:31:20.543Z,102344.52
2019-03-25T17:33:41.209Z,102343.70
2019-03-25T17:36:09.795Z,102355.63
2019-03-25T17:38:38.615Z,102359.16
2019-03-25T17:41:07.309Z,102369.16
2019-03-25T17:43:35.841Z,102355.63
2019-03-25T17:46:04.571Z,102368.88
2019-03-25T17:48:33.408Z,102381.09
2019-03-25T17:51:02.160Z,102385.48
2019-03-25T17:53:30.781Z,102393.34
2019-03-25T17:55:59.863Z,102399.28
2019-03-25T17:58:28.435Z,102412.23
2019-03-25T18:01:02.784Z,102412.75
2019-03-25T18:03:31.369Z,102411.06
2019-03-25T18:05:59.927Z,102424.88
2019-03-25T18:08:28.575Z,102424.84
2019-03-25T18:10:57.192Z,102432.97
2019-03-25T18:13:26.344Z,102446.16
2019-03-25T18:15:55.049Z,102448.38
